createdAt,value
2023-05-21T00:00:51.905Z,11.18
2023-05-21T00:03:42.590Z,11.09
2023-05-21T00:06:11.317Z,10.99
2023-05-21T00:08:40.480Z,10.89
2023-05-21T00:11:09.554Z,10.83
2023-05-21T00:13:39.030Z,10.83
2023-05-21T00:16:07.938Z,10.80
2023-05-21T00:18:36.145Z,10.71
2023-05-21T00:21:04.412Z,10.70
2023-05-21T00:23:33.038Z,10.67
2023-05-21T00:26:01.571Z,10.63
2023-05-21T00:28:29.666Z,10.60
2023-05-21T00:30:57.874Z,10.55
2023-05-21T00:33:29.780Z,10.52
2023-05-21T00:35:58.207Z,10.47
2023-05-21T00:38:28.368Z,10.45
2023-05-21T00:40:57.108Z,10.41
2023-05-21T00:43:27.223Z,10.39
2023-05-21T00:45:56.977Z,10.28
2023-05-21T00:48:24.689Z,10.29
2023-05-21T00:50:53.781Z,10.23
2023-05-21T00:53:21.663Z,10.19
2023-05-21T00:55:51.253Z,10.13
2023-05-21T00:58:20.080Z,10.08
2023-05-21T01:00:48.782Z,10.03
2023-05-21T01:03:19.793Z,10.00
2023-05-21T01:05:49.173Z,9.96
2023-05-21T01:08:18.296Z,9.96
2023-05-21T01:10:46.698Z,9.91
2023-05-21T01:13:16.819Z,9.83
2023-05-21T01:15:45.887Z,9.79
2023-05-21T01:18:14.801Z,9.78
2023-05-21T01:20:48.035Z,9.69
2023-05-21T01:23:19.067Z,9.66
2023-05-21T01:25:47.572Z,9.65
2023-05-21T01:28:15.486Z,9.59
2023-05-21T01:30:44.940Z,9.49
2023-05-21T01:33:27.367Z,9.42
2023-05-21T01:36:09.881Z,9.36
2023-05-21T01:39:06.976Z,9.26
2023-05-21T01:41:38.995Z,9.23
2023-05-21T01:44:08.983Z,9.20
2023-05-21T01:46:38.373Z,9.12
2023-05-21T01:49:07.182Z,9.09
2023-05-21T01:51:36.176Z,9.04
2023-05-21T01:54:04.670Z,9.02
2023-05-21T01:56:34.356Z,8.99
2023-05-21T01:59:02.229Z,8.98
2023-05-21T02:01:30.925Z,8.96
2023-05-21T02:03:59.110Z,8.94
2023-05-21T02:06:27.533Z,8.88
2023-05-21T02:08:55.974Z,8.86
2023-05-21T02:11:24.591Z,8.81
2023-05-21T02:13:52.703Z,8.79
2023-05-21T02:16:23.063Z,8.74
2023-05-21T02:18:57.776Z,8.71
2023-05-21T02:21:26.426Z,8.63
2023-05-21T02:23:54.412Z,8.57
2023-05-21T02:26:23.046Z,8.56
2023-05-21T02:28:53.512Z,8.49
2023-05-21T02:31:21.751Z,8.55
2023-05-21T02:33:49.530Z,8.52
2023-05-21T02:36:19.725Z,8.50
2023-05-21T02:38:48.446Z,8.49
2023-05-21T02:41:16.848Z,8.48
2023-05-21T02:43:44.699Z,8.48
2023-05-21T02:46:13.427Z,8.50
2023-05-21T02:48:41.214Z,8.52
2023-05-21T02:51:09.759Z,8.50
2023-05-21T02:53:38.274Z,8.53
2023-05-21T02:56:06.677Z,8.55
2023-05-21T02:58:34.673Z,8.60
2023-05-21T03:01:03.337Z,8.61
2023-05-21T03:03:33.007Z,8.56
2023-05-21T03:06:01.746Z,8.65
2023-05-21T03:08:29.960Z,8.69
2023-05-21T03:10:58.282Z,8.73
2023-05-21T03:13:26.684Z,8.79
2023-05-21T03:15:56.564Z,8.84
2023-05-21T03:18:24.996Z,8.89
2023-05-21T03:20:53.832Z,8.94
2023-05-21T03:23:22.415Z,9.00
2023-05-21T03:25:51.125Z,9.01
2023-05-21T03:28:19.182Z,9.08
2023-05-21T03:30:51.327Z,9.14
2023-05-21T03:33:37.257Z,9.27
2023-05-21T03:36:19.169Z,9.37
2023-05-21T03:38:47.348Z,9.48
2023-05-21T03:41:15.828Z,9.53
2023-05-21T03:43:47.659Z,9.67
2023-05-21T03:46:16.532Z,9.77
2023-05-21T03:49:02.829Z,9.85
2023-05-21T03:51:33.414Z,9.92
2023-05-21T03:54:01.816Z,10.10
2023-05-21T03:56:30.296Z,10.14
2023-05-21T03:58:58.619Z,10.25
2023-05-21T04:01:28.550Z,10.31
2023-05-21T04:03:58.835Z,10.45
2023-05-21T04:06:30.691Z,10.56
2023-05-21T04:08:59.323Z,10.72
2023-05-21T04:11:27.626Z,10.79
2023-05-21T04:13:55.740Z,10.89
2023-05-21T04:16:25.683Z,11.00
2023-05-21T04:18:55.979Z,11.12
2023-05-21T04:21:26.741Z,11.25
2023-05-21T04:23:58.045Z,11.39
2023-05-21T04:26:38.718Z,11.63
2023-05-21T04:29:06.736Z,11.86
2023-05-21T04:31:34.980Z,12.07
2023-05-21T04:34:05.212Z,12.28
2023-05-21T04:36:34.087Z,12.45
2023-05-21T04:39:02.584Z,12.54
2023-05-21T04:41:31.930Z,12.86
2023-05-21T04:44:01.369Z,13.06
2023-05-21T04:46:32.659Z,13.25
2023-05-21T04:49:05.329Z,13.43
2023-05-21T04:51:33.810Z,13.64
2023-05-21T04:54:03.741Z,13.79
2023-05-21T04:56:32.573Z,13.98
2023-05-21T04:59:05.172Z,14.24
2023-05-21T05:01:35.585Z,14.49
2023-05-21T05:04:04.221Z,14.76
2023-05-21T05:06:32.940Z,14.98
2023-05-21T05:09:00.777Z,15.22
2023-05-21T05:11:29.440Z,15.48
2023-05-21T05:13:57.634Z,15.79
2023-05-21T05:16:26.779Z,16.06
2023-05-21T05:18:57.556Z,16.33
2023-05-21T05:21:26.128Z,16.67
2023-05-21T05:23:53.970Z,17.01
2023-05-21T05:26:27.317Z,17.35
2023-05-21T05:28:56.025Z,17.74
2023-05-21T05:31:25.682Z,18.02
2023-05-21T05:33:54.672Z,18.10
2023-05-21T05:36:25.154Z,18.00
2023-05-21T05:38:53.617Z,17.98
2023-05-21T05:41:23.538Z,18.32
2023-05-21T05:43:52.039Z,18.49
2023-05-21T05:46:23.052Z,18.51
2023-05-21T05:48:52.634Z,18.42
2023-05-21T05:51:21.396Z,18.47
2023-05-21T05:53:49.480Z,18.52
2023-05-21T05:56:18.066Z,18.72
2023-05-21T05:58:46.387Z,18.96
2023-05-21T06:01:18.299Z,18.97
2023-05-21T06:03:46.375Z,18.85
2023-05-21T06:06:19.807Z,18.83
2023-05-21T06:08:48.881Z,19.08
2023-05-21T06:11:19.712Z,19.28
2023-05-21T06:13:47.955Z,19.48
2023-05-21T06:16:18.458Z,19.53
2023-05-21T06:18:46.587Z,19.72
2023-05-21T06:21:15.275Z,19.57
2023-05-21T06:23:43.378Z,19.61
2023-05-21T06:26:12.118Z,19.73
2023-05-21T06:28:41.058Z,19.69
2023-05-21T06:31:12.464Z,19.83
2023-05-21T06:33:41.425Z,19.97
2023-05-21T06:36:10.025Z,20.14
2023-05-21T06:38:38.003Z,20.27
2023-05-21T06:41:06.467Z,20.39
2023-05-21T06:43:54.420Z,20.60
2023-05-21T06:46:41.224Z,21.23
2023-05-21T06:49:12.874Z,21.48
2023-05-21T06:51:42.730Z,21.74
2023-05-21T06:54:12.446Z,21.91
2023-05-21T06:56:42.349Z,22.12
2023-05-21T06:59:10.911Z,21.99
2023-05-21T07:01:42.779Z,22.29
2023-05-21T07:04:11.950Z,22.13
2023-05-21T07:06:41.608Z,22.26
2023-05-21T07:09:10.514Z,22.43
2023-05-21T07:11:39.931Z,22.06
2023-05-21T07:14:09.806Z,22.17
2023-05-21T07:16:39.515Z,22.46
2023-05-21T07:19:08.644Z,22.78
2023-05-21T07:21:37.350Z,22.70
2023-05-21T07:24:07.489Z,22.55
2023-05-21T07:26:39.034Z,22.56
2023-05-21T07:29:07.413Z,22.75
2023-05-21T07:31:35.724Z,22.77
2023-05-21T07:34:03.869Z,22.60
2023-05-21T07:36:34.009Z,22.58
2023-05-21T07:39:02.377Z,22.78
2023-05-21T07:41:31.318Z,23.03
2023-05-21T07:44:02.000Z,22.95
2023-05-21T07:46:32.970Z,22.96
2023-05-21T07:49:01.418Z,22.95
2023-05-21T07:51:29.929Z,22.96
2023-05-21T07:53:58.339Z,22.78
2023-05-21T07:56:33.469Z,22.52
2023-05-21T07:59:01.756Z,22.48
2023-05-21T08:01:30.946Z,22.71
2023-05-21T08:04:06.423Z,23.02
2023-05-21T08:06:37.951Z,22.93
2023-05-21T08:09:06.941Z,22.76
2023-05-21T08:11:36.415Z,22.70
2023-05-21T08:14:05.369Z,22.61
2023-05-21T08:16:33.906Z,22.51
2023-05-21T08:19:02.146Z,22.65
2023-05-21T08:21:34.155Z,22.59
2023-05-21T08:24:03.467Z,22.48
2023-05-21T08:26:34.197Z,22.63
2023-05-21T08:29:03.313Z,22.79
2023-05-21T08:31:31.971Z,22.61
2023-05-21T08:33:59.850Z,22.75
2023-05-21T08:36:39.466Z,22.85
2023-05-21T08:39:18.808Z,22.91
2023-05-21T08:41:52.310Z,22.97
2023-05-21T08:44:24.323Z,22.90
2023-05-21T08:46:55.370Z,22.82
2023-05-21T08:49:27.678Z,22.95
2023-05-21T08:51:58.190Z,22.86
2023-05-21T08:54:26.181Z,22.74
2023-05-21T08:56:55.688Z,22.63
2023-05-21T08:59:23.497Z,22.63
2023-05-21T09:01:52.836Z,22.75
2023-05-21T09:04:29.016Z,22.67
2023-05-21T09:06:58.375Z,22.80
2023-05-21T09:09:56.258Z,22.70
2023-05-21T09:12:27.894Z,22.73
2023-05-21T09:15:00.495Z,22.70
2023-05-21T09:17:34.002Z,22.68
2023-05-21T09:20:25.443Z,22.53
2023-05-21T09:23:03.792Z,22.33
2023-05-21T09:25:31.787Z,22.16
2023-05-21T09:28:12.406Z,22.20
2023-05-21T09:31:04.066Z,22.34
2023-05-21T09:33:32.311Z,22.41
2023-05-21T09:36:00.788Z,22.59
2023-05-21T09:38:29.859Z,22.70
2023-05-21T09:40:58.328Z,22.62
2023-05-21T09:43:28.231Z,22.66
2023-05-21T09:45:59.728Z,22.73
2023-05-21T09:48:37.600Z,22.97
2023-05-21T09:51:12.984Z,22.94
2023-05-21T09:53:45.976Z,22.79
2023-05-21T09:56:14.029Z,22.73
2023-05-21T09:58:42.284Z,22.69
2023-05-21T10:01:11.842Z,22.81
2023-05-21T10:03:43.485Z,22.78
2023-05-21T10:06:12.156Z,22.68
2023-05-21T10:08:44.219Z,22.84
2023-05-21T10:11:12.698Z,22.90
2023-05-21T10:13:45.501Z,22.67
2023-05-21T10:16:14.106Z,22.90
2023-05-21T10:18:43.608Z,22.95
2023-05-21T10:21:11.501Z,22.80
2023-05-21T10:23:41.054Z,22.68
2023-05-21T10:26:08.806Z,22.70
2023-05-21T10:28:37.692Z,22.73
2023-05-21T10:31:05.618Z,22.87
2023-05-21T10:33:36.182Z,22.85
2023-05-21T10:36:04.444Z,22.76
2023-05-21T10:38:34.244Z,22.89
2023-05-21T10:41:05.125Z,23.00
2023-05-21T10:44:18.096Z,22.93
2023-05-21T10:47:07.367Z,22.71
2023-05-21T10:50:12.530Z,22.64
2023-05-21T10:52:51.947Z,22.70
2023-05-21T10:55:48.155Z,22.74
2023-05-21T10:58:41.987Z,22.74
2023-05-21T11:01:10.908Z,22.64
2023-05-21T11:03:38.785Z,22.70
2023-05-21T11:06:07.373Z,22.76
2023-05-21T11:08:39.406Z,22.92
2023-05-21T11:11:08.088Z,22.89
2023-05-21T11:13:50.228Z,22.81
2023-05-21T11:16:19.182Z,22.78
2023-05-21T11:18:47.623Z,22.95
2023-05-21T11:21:17.707Z,23.07
2023-05-21T11:24:06.906Z,22.91
2023-05-21T11:26:59.310Z,22.89
2023-05-21T11:29:34.146Z,22.96
2023-05-21T11:32:06.282Z,23.06
2023-05-21T11:34:40.189Z,23.12
2023-05-21T11:37:17.766Z,23.19
2023-05-21T11:39:45.988Z,23.16
2023-05-21T11:42:31.112Z,22.96
2023-05-21T11:44:59.668Z,22.94
2023-05-21T11:47:29.217Z,23.09
2023-05-21T11:50:00.204Z,23.26
2023-05-21T11:52:30.676Z,23.16
2023-05-21T11:55:00.256Z,23.22
2023-05-21T11:57:32.061Z,23.16
2023-05-21T12:00:01.788Z,23.05
2023-05-21T12:02:34.383Z,23.05
2023-05-21T12:05:02.803Z,23.02
2023-05-21T12:07:31.588Z,23.01
2023-05-21T12:10:01.255Z,23.08
2023-05-21T12:12:38.778Z,23.11
2023-05-21T12:15:11.132Z,23.00
2023-05-21T12:17:39.856Z,22.90
2023-05-21T12:20:09.856Z,23.00
2023-05-21T12:22:43.119Z,23.03
2023-05-21T12:25:11.270Z,23.06
2023-05-21T12:27:42.607Z,23.18
2023-05-21T12:30:11.453Z,23.14
2023-05-21T12:32:46.868Z,23.29
2023-05-21T12:35:23.806Z,23.42
2023-05-21T12:37:53.289Z,23.35
2023-05-21T12:40:21.569Z,23.30
2023-05-21T12:42:50.522Z,23.28
2023-05-21T12:45:19.205Z,23.35
2023-05-21T12:47:56.382Z,23.37
2023-05-21T12:50:25.259Z,23.33
2023-05-21T12:52:59.293Z,23.35
2023-05-21T12:55:27.490Z,23.47
2023-05-21T12:58:06.564Z,23.41
2023-05-21T13:00:35.025Z,23.40
2023-05-21T13:03:04.884Z,23.45
2023-05-21T13:05:33.026Z,23.27
2023-05-21T13:08:02.873Z,23.39
2023-05-21T13:10:31.543Z,23.40
2023-05-21T13:13:00.429Z,23.30
2023-05-21T13:15:28.900Z,23.32
2023-05-21T13:17:57.970Z,23.28
2023-05-21T13:20:27.804Z,23.21
2023-05-21T13:22:56.713Z,23.02
2023-05-21T13:25:29.260Z,23.27
2023-05-21T13:28:03.372Z,23.32
2023-05-21T13:30:31.847Z,23.56
2023-05-21T13:33:00.387Z,23.44
2023-05-21T13:35:28.403Z,23.56
2023-05-21T13:37:57.558Z,23.53
2023-05-21T13:40:25.449Z,23.47
2023-05-21T13:42:54.362Z,23.54
2023-05-21T13:45:24.577Z,23.55
2023-05-21T13:47:53.170Z,23.38
2023-05-21T13:50:21.184Z,23.19
2023-05-21T13:52:49.435Z,23.18
2023-05-21T13:55:17.432Z,23.21
2023-05-21T13:57:46.649Z,23.30
2023-05-21T14:00:16.279Z,23.33
2023-05-21T14:02:45.428Z,23.46
2023-05-21T14:05:14.225Z,23.38
2023-05-21T14:07:43.051Z,23.33
2023-05-21T14:10:12.388Z,23.28
2023-05-21T14:12:41.368Z,23.16
2023-05-21T14:15:10.075Z,23.22
2023-05-21T14:17:40.810Z,23.31
2023-05-21T14:20:10.246Z,23.24
2023-05-21T14:22:39.414Z,23.24
2023-05-21T14:25:07.669Z,23.26
2023-05-21T14:27:38.418Z,23.22
2023-05-21T14:30:07.182Z,23.17
2023-05-21T14:32:35.966Z,23.23
2023-05-21T14:35:04.686Z,23.38
2023-05-21T14:37:33.172Z,23.22
2023-05-21T14:40:01.677Z,23.32
2023-05-21T14:42:30.791Z,23.27
2023-05-21T14:44:59.187Z,23.33
2023-05-21T14:47:27.535Z,23.34
2023-05-21T14:49:55.651Z,23.33
2023-05-21T14:52:24.058Z,23.36
2023-05-21T14:54:52.257Z,23.37
2023-05-21T14:57:21.633Z,23.33
2023-05-21T14:59:49.282Z,23.33
2023-05-21T15:02:17.817Z,23.23
2023-05-21T15:04:45.748Z,23.17
2023-05-21T15:07:14.523Z,23.16
2023-05-21T15:09:42.407Z,23.13
2023-05-21T15:12:11.115Z,23.09
2023-05-21T15:14:38.819Z,23.14
2023-05-21T15:17:07.011Z,23.24
2023-05-21T15:19:35.331Z,23.25
2023-05-21T15:22:03.903Z,23.25
2023-05-21T15:24:31.907Z,23.21
2023-05-21T15:27:00.148Z,23.27
2023-05-21T15:29:28.577Z,23.21
2023-05-21T15:31:57.248Z,23.10
2023-05-21T15:34:25.356Z,23.11
2023-05-21T15:36:54.557Z,23.03
2023-05-21T15:39:22.451Z,22.91
2023-05-21T15:41:51.009Z,22.87
2023-05-21T15:44:18.996Z,22.87
2023-05-21T15:46:49.891Z,22.80
2023-05-21T15:49:18.013Z,22.97
2023-05-21T15:51:47.925Z,22.97
2023-05-21T15:54:16.049Z,23.02
2023-05-21T15:56:46.154Z,22.96
2023-05-21T15:59:14.608Z,22.76
2023-05-21T16:01:43.152Z,22.72
2023-05-21T16:04:11.441Z,22.64
2023-05-21T16:06:40.584Z,22.67
2023-05-21T16:09:08.577Z,22.65
2023-05-21T16:11:37.174Z,22.69
2023-05-21T16:14:05.057Z,22.61
2023-05-21T16:16:34.983Z,22.69
2023-05-21T16:19:03.124Z,22.60
2023-05-21T16:21:32.257Z,22.54
2023-05-21T16:24:00.444Z,22.56
2023-05-21T16:26:29.130Z,22.50
2023-05-21T16:28:58.822Z,22.44
2023-05-21T16:31:27.679Z,22.39
2023-05-21T16:33:56.327Z,22.39
2023-05-21T16:36:25.099Z,22.37
2023-05-21T16:38:53.013Z,22.35
2023-05-21T16:41:22.494Z,22.33
2023-05-21T16:43:52.995Z,22.29
2023-05-21T16:46:22.027Z,22.27
2023-05-21T16:48:49.918Z,22.20
2023-05-21T16:51:18.591Z,22.16
2023-05-21T16:53:47.333Z,22.09
2023-05-21T16:56:15.833Z,22.09
2023-05-21T16:58:43.886Z,22.03
2023-05-21T17:01:12.546Z,22.01
2023-05-21T17:03:43.084Z,22.00
2023-05-21T17:06:12.079Z,21.97
2023-05-21T17:08:39.430Z,21.92
2023-05-21T17:11:07.828Z,21.84
2023-05-21T17:13:35.668Z,21.81
2023-05-21T17:16:04.524Z,21.73
2023-05-21T17:18:32.768Z,21.65
2023-05-21T17:21:01.256Z,21.62
2023-05-21T17:23:29.013Z,21.59
2023-05-21T17:25:57.327Z,21.49
2023-05-21T17:28:28.416Z,21.45
2023-05-21T17:30:56.674Z,21.41
2023-05-21T17:33:25.282Z,21.31
2023-05-21T17:35:53.866Z,21.21
2023-05-21T17:38:21.793Z,21.14
2023-05-21T17:40:51.146Z,21.02
2023-05-21T17:43:19.086Z,20.96
2023-05-21T17:45:47.097Z,20.88
2023-05-21T17:48:15.340Z,20.77
2023-05-21T17:50:43.510Z,20.70
2023-05-21T17:53:13.243Z,20.60
2023-05-21T17:55:41.721Z,20.44
2023-05-21T17:58:12.659Z,20.34
2023-05-21T18:00:40.977Z,20.20
2023-05-21T18:03:08.859Z,20.09
2023-05-21T18:05:37.664Z,19.91
2023-05-21T18:08:07.331Z,19.79
2023-05-21T18:10:35.975Z,19.72
2023-05-21T18:13:04.456Z,19.60
2023-05-21T18:15:33.534Z,19.46
2023-05-21T18:18:01.712Z,19.32
2023-05-21T18:20:30.324Z,19.11
2023-05-21T18:22:58.577Z,18.97
2023-05-21T18:25:27.142Z,18.76
2023-05-21T18:27:55.317Z,18.54
2023-05-21T18:30:23.721Z,18.34
2023-05-21T18:32:51.981Z,18.09
2023-05-21T18:35:21.175Z,17.84
2023-05-21T18:37:49.666Z,17.62
2023-05-21T18:40:18.606Z,17.24
2023-05-21T18:42:46.758Z,16.91
2023-05-21T18:45:15.988Z,16.70
2023-05-21T18:47:45.252Z,16.62
2023-05-21T18:50:14.407Z,16.47
2023-05-21T18:52:42.277Z,16.44
2023-05-21T18:55:11.023Z,16.29
2023-05-21T18:57:40.088Z,16.19
2023-05-21T19:00:10.023Z,16.02
2023-05-21T19:02:38.592Z,15.91
2023-05-21T19:05:08.204Z,15.73
2023-05-21T19:07:36.962Z,15.56
2023-05-21T19:10:05.876Z,15.47
2023-05-21T19:12:36.395Z,15.36
2023-05-21T19:15:05.217Z,15.20
2023-05-21T19:17:35.699Z,15.16
2023-05-21T19:20:05.662Z,15.05
2023-05-21T19:22:34.219Z,14.95
2023-05-21T19:25:02.928Z,14.83
2023-05-21T19:27:31.167Z,14.66
2023-05-21T19:29:59.790Z,14.48
2023-05-21T19:32:27.985Z,14.38
2023-05-21T19:34:57.827Z,14.27
2023-05-21T19:37:26.580Z,14.20
2023-05-21T19:39:55.148Z,14.13
2023-05-21T19:42:23.418Z,14.07
2023-05-21T19:44:52.159Z,13.97
2023-05-21T19:47:20.412Z,13.84
2023-05-21T19:49:49.062Z,13.80
2023-05-21T19:52:16.970Z,13.76
2023-05-21T19:54:45.814Z,13.64
2023-05-21T19:57:14.288Z,13.59
2023-05-21T19:59:42.957Z,13.53
2023-05-21T20:02:12.836Z,13.49
2023-05-21T20:04:41.557Z,13.43
2023-05-21T20:07:09.729Z,13.37
2023-05-21T20:09:38.214Z,13.33
2023-05-21T20:12:06.828Z,13.26
2023-05-21T20:14:35.588Z,13.23
2023-05-21T20:17:06.290Z,13.05
2023-05-21T20:19:36.174Z,13.07
2023-05-21T20:22:04.535Z,13.06
2023-05-21T20:24:33.346Z,13.01
2023-05-21T20:27:02.087Z,12.98
2023-05-21T20:29:30.803Z,12.87
2023-05-21T20:31:59.016Z,12.74
2023-05-21T20:34:30.407Z,12.61
2023-05-21T20:36:58.896Z,12.50
2023-05-21T20:39:28.855Z,12.44
2023-05-21T20:41:58.766Z,12.39
2023-05-21T20:44:28.003Z,12.31
2023-05-21T20:46:55.820Z,12.27
2023-05-21T20:49:25.393Z,12.27
2023-05-21T20:51:53.727Z,12.23
2023-05-21T20:54:22.735Z,12.18
2023-05-21T20:56:51.481Z,12.13
2023-05-21T20:59:20.106Z,12.11
2023-05-21T21:01:48.223Z,12.08
2023-05-21T21:04:18.353Z,12.01
2023-05-21T21:06:47.247Z,11.98
2023-05-21T21:09:15.943Z,11.90
2023-05-21T21:11:44.228Z,11.83
2023-05-21T21:14:14.332Z,11.79
2023-05-21T21:16:42.334Z,11.74
2023-05-21T21:19:11.768Z,11.70
2023-05-21T21:21:39.961Z,11.63
2023-05-21T21:24:08.859Z,11.50
2023-05-21T21:26:36.842Z,11.50
2023-05-21T21:29:05.552Z,11.48
2023-05-21T21:31:34.411Z,11.44
2023-05-21T21:34:03.211Z,11.34
2023-05-21T21:36:31.679Z,11.33
2023-05-21T21:38:59.645Z,11.28
2023-05-21T21:41:28.184Z,11.22
2023-05-21T21:43:56.990Z,11.18
2023-05-21T21:46:26.066Z,11.05
2023-05-21T21:48:54.650Z,11.03
2023-05-21T21:51:23.481Z,10.92
2023-05-21T21:53:52.280Z,10.87
2023-05-21T21:56:20.403Z,10.79
2023-05-21T21:58:48.486Z,10.72
2023-05-21T22:01:16.975Z,10.65
2023-05-21T22:03:45.663Z,10.63
2023-05-21T22:06:13.582Z,10.63
2023-05-21T22:08:42.317Z,10.60
2023-05-21T22:11:10.822Z,10.55
2023-05-21T22:13:38.886Z,10.47
2023-05-21T22:16:07.538Z,10.39
2023-05-21T22:18:40.148Z,10.34
2023-05-21T22:21:10.351Z,10.29
2023-05-21T22:23:39.368Z,10.20
2023-05-21T22:26:10.139Z,10.16
2023-05-21T22:28:38.932Z,10.06
2023-05-21T22:31:07.897Z,10.13
2023-05-21T22:33:37.068Z,10.10
2023-05-21T22:36:05.794Z,10.10
2023-05-21T22:38:34.542Z,10.01
2023-05-21T22:41:04.100Z,10.03
2023-05-21T22:43:34.930Z,10.03
2023-05-21T22:46:03.521Z,10.02
2023-05-21T22:48:32.051Z,9.96
2023-05-21T22:51:01.993Z,9.98
2023-05-21T22:53:30.552Z,9.92
2023-05-21T22:55:58.711Z,9.93
2023-05-21T22:58:27.213Z,9.88
2023-05-21T23:00:55.787Z,9.89
2023-05-21T23:03:24.403Z,9.89
2023-05-21T23:05:52.342Z,9.88
2023-05-21T23:08:20.835Z,9.77
2023-05-21T23:10:49.486Z,9.80
2023-05-21T23:13:17.943Z,9.76
2023-05-21T23:15:45.891Z,9.68
2023-05-21T23:18:14.665Z,9.65
2023-05-21T23:20:44.166Z,9.58
2023-05-21T23:23:12.662Z,9.47
2023-05-21T23:25:40.367Z,9.43
2023-05-21T23:28:08.959Z,9.36
2023-05-21T23:30:37.021Z,9.34
2023-05-21T23:33:05.430Z,9.26
2023-05-21T23:35:38.372Z,9.23
2023-05-21T23:38:07.596Z,9.20
2023-05-21T23:40:35.776Z,9.14
2023-05-21T23:43:05.471Z,9.10
2023-05-21T23:45:33.746Z,9.07
2023-05-21T23:48:02.280Z,9.02
2023-05-21T23:50:30.341Z,9.01
2023-05-21T23:52:59.296Z,9.01
2023-05-21T23:55:27.052Z,8.93
2023-05-21T23:57:55.144Z,8.84
